sensor_id;sensor_type;location;lat;lon;timestamp;temperature;humidity
1538;DHT22;12022;52.266;10.522;2022-08-05T00:01:53;21.30;99.90
1538;DHT22;12022;52.266;10.522;2022-08-05T00:04:20;21.20;99.90
1538;DHT22;12022;52.266;10.522;2022-08-05T00:06:48;21.10;99.90
1538;DHT22;12022;52.266;10.522;2022-08-05T00:09:17;21.00;99.90
1538;DHT22;12022;52.266;10.522;2022-08-05T00:11:45;21.00;99.90
1538;DHT22;12022;52.266;10.522;2022-08-05T00:14:14;21.00;99.90
1538;DHT22;12022;52.266;10.522;2022-08-05T00:16:46;21.10;99.90
1538;DHT22;12022;52.266;10.522;2022-08-05T00:19:23;21.00;99.90
1538;DHT22;12022;52.266;10.522;2022-08-05T00:21:58;21.10;99.90
1538;DHT22;12022;52.266;10.522;2022-08-05T00:24:26;21.10;99.90
1538;DHT22;12022;52.266;10.522;2022-08-05T00:26:58;21.20;99.90
1538;DHT22;12022;52.266;10.522;2022-08-05T00:29:26;21.20;99.90
1538;DHT22;12022;52.266;10.522;2022-08-05T00:32:04;21.20;99.90
1538;DHT22;12022;52.266;10.522;2022-08-05T00:34:42;21.20;99.90
1538;DHT22;12022;52.266;10.522;2022-08-05T00:37:30;21.20;99.90
1538;DHT22;12022;52.266;10.522;2022-08-05T00:40:18;21.20;99.90
1538;DHT22;12022;52.266;10.522;2022-08-05T00:42:56;21.30;99.90
1538;DHT22;12022;52.266;10.522;2022-08-05T00:45:24;21.20;99.90
1538;DHT22;12022;52.266;10.522;2022-08-05T00:48:14;21.20;99.90
1538;DHT22;12022;52.266;10.522;2022-08-05T00:50:43;21.20;99.90
1538;DHT22;12022;52.266;10.522;2022-08-05T00:53:13;21.20;99.90
1538;DHT22;12022;52.266;10.522;2022-08-05T00:56:02;21.20;99.90
1538;DHT22;12022;52.266;10.522;2022-08-05T00:58:28;21.20;99.90
1538;DHT22;12022;52.266;10.522;2022-08-05T01:00:56;21.20;99.90
1538;DHT22;12022;52.266;10.522;2022-08-05T01:03:23;21.30;99.90
1538;DHT22;12022;52.266;10.522;2022-08-05T01:05:59;21.30;99.90
1538;DHT22;12022;52.266;10.522;2022-08-05T01:08:26;21.20;99.90
1538;DHT22;12022;52.266;10.522;2022-08-05T01:11:21;21.20;99.90
1538;DHT22;12022;52.266;10.522;2022-08-05T01:14:09;21.30;99.90
1538;DHT22;12022;52.266;10.522;2022-08-05T01:16:53;21.30;99.90
1538;DHT22;12022;52.266;10.522;2022-08-05T01:19:25;21.30;99.90
1538;DHT22;12022;52.266;10.522;2022-08-05T01:30:37;21.10;99.90
1538;DHT22;12022;52.266;10.522;2022-08-05T01:33:18;21.10;99.90
1538;DHT22;12022;52.266;10.522;2022-08-05T01:35:54;21.00;99.90
1538;DHT22;12022;52.266;10.522;2022-08-05T01:38:24;21.00;99.90
1538;DHT22;12022;52.266;10.522;2022-08-05T01:40:59;21.00;99.90
1538;DHT22;12022;52.266;10.522;2022-08-05T01:43:28;21.00;99.90
1538;DHT22;12022;52.266;10.522;2022-08-05T01:45:56;20.90;99.90
1538;DHT22;12022;52.266;10.522;2022-08-05T01:48:46;20.90;99.90
1538;DHT22;12022;52.266;10.522;2022-08-05T01:51:17;20.90;99.90
1538;DHT22;12022;52.266;10.522;2022-08-05T01:53:47;20.90;99.90
1538;DHT22;12022;52.266;10.522;2022-08-05T01:56:38;20.90;99.90
1538;DHT22;12022;52.266;10.522;2022-08-05T01:59:25;20.90;99.90
1538;DHT22;12022;52.266;10.522;2022-08-05T02:01:57;20.90;99.90
1538;DHT22;12022;52.266;10.522;2022-08-05T02:04:27;20.90;99.90
1538;DHT22;12022;52.266;10.522;2022-08-05T02:06:57;20.90;99.90
1538;DHT22;12022;52.266;10.522;2022-08-05T02:09:25;20.90;99.90
1538;DHT22;12022;52.266;10.522;2022-08-05T02:12:11;20.90;99.90
1538;DHT22;12022;52.266;10.522;2022-08-05T02:17:52;20.90;99.90
1538;DHT22;12022;52.266;10.522;2022-08-05T02:21:08;20.90;99.90
1538;DHT22;12022;52.266;10.522;2022-08-05T02:23:44;20.80;99.90
1538;DHT22;12022;52.266;10.522;2022-08-05T02:26:20;20.80;99.90
1538;DHT22;12022;52.266;10.522;2022-08-05T02:28:49;20.80;99.90
1538;DHT22;12022;52.266;10.522;2022-08-05T02:31:25;20.80;99.90
1538;DHT22;12022;52.266;10.522;2022-08-05T02:33:57;20.80;99.90
1538;DHT22;12022;52.266;10.522;2022-08-05T02:36:26;20.80;99.90
1538;DHT22;12022;52.266;10.522;2022-08-05T02:38:59;20.80;99.90
1538;DHT22;12022;52.266;10.522;2022-08-05T02:41:28;20.80;99.90
1538;DHT22;12022;52.266;10.522;2022-08-05T02:44:17;20.80;99.90
1538;DHT22;12022;52.266;10.522;2022-08-05T02:46:46;20.80;99.90
1538;DHT22;12022;52.266;10.522;2022-08-05T02:49:28;20.80;99.90
1538;DHT22;12022;52.266;10.522;2022-08-05T02:52:24;20.80;99.90
1538;DHT22;12022;52.266;10.522;2022-08-05T02:55:01;20.80;99.90
1538;DHT22;12022;52.266;10.522;2022-08-05T02:57:32;20.80;99.90
1538;DHT22;12022;52.266;10.522;2022-08-05T03:00:20;20.80;99.90
1538;DHT22;12022;52.266;10.522;2022-08-05T03:02:47;20.70;99.90
1538;DHT22;12022;52.266;10.522;2022-08-05T03:05:16;20.70;99.90
1538;DHT22;12022;52.266;10.522;2022-08-05T03:08:04;20.70;99.90
1538;DHT22;12022;52.266;10.522;2022-08-05T03:10:34;20.60;99.90
1538;DHT22;12022;52.266;10.522;2022-08-05T03:13:10;20.70;99.90
1538;DHT22;12022;52.266;10.522;2022-08-05T03:15:46;20.60;99.90
1538;DHT22;12022;52.266;10.522;2022-08-05T03:18:17;20.60;99.90
1538;DHT22;12022;52.266;10.522;2022-08-05T03:20:55;20.70;99.90
1538;DHT22;12022;52.266;10.522;2022-08-05T03:23:26;20.70;99.90
1538;DHT22;12022;52.266;10.522;2022-08-05T03:25:54;20.70;99.90
1538;DHT22;12022;52.266;10.522;2022-08-05T03:28:45;20.80;99.90
1538;DHT22;12022;52.266;10.522;2022-08-05T03:31:13;20.80;99.90
1538;DHT22;12022;52.266;10.522;2022-08-05T03:34:00;20.70;99.90
1538;DHT22;12022;52.266;10.522;2022-08-05T03:36:27;20.70;99.90
1538;DHT22;12022;52.266;10.522;2022-08-05T03:38:56;20.70;99.90
1538;DHT22;12022;52.266;10.522;2022-08-05T03:41:24;20.70;99.90
1538;DHT22;12022;52.266;10.522;2022-08-05T03:43:58;20.80;99.90
1538;DHT22;12022;52.266;10.522;2022-08-05T03:46:37;20.80;99.90
1538;DHT22;12022;52.266;10.522;2022-08-05T03:49:04;20.80;99.90
1538;DHT22;12022;52.266;10.522;2022-08-05T03:51:37;20.70;99.90
1538;DHT22;12022;52.266;10.522;2022-08-05T03:54:51;20.50;99.90
1538;DHT22;12022;52.266;10.522;2022-08-05T03:57:39;20.50;99.90
1538;DHT22;12022;52.266;10.522;2022-08-05T04:00:14;20.50;99.90
1538;DHT22;12022;52.266;10.522;2022-08-05T04:02:45;20.50;99.90
1538;DHT22;12022;52.266;10.522;2022-08-05T04:05:32;20.40;99.90
1538;DHT22;12022;52.266;10.522;2022-08-05T04:08:06;20.30;99.90
1538;DHT22;12022;52.266;10.522;2022-08-05T04:10:54;20.40;99.90
1538;DHT22;12022;52.266;10.522;2022-08-05T04:13:22;20.40;99.90
1538;DHT22;12022;52.266;10.522;2022-08-05T04:15:49;20.40;99.90
1538;DHT22;12022;52.266;10.522;2022-08-05T04:18:29;20.40;99.90
1538;DHT22;12022;52.266;10.522;2022-08-05T04:21:00;20.40;99.90
1538;DHT22;12022;52.266;10.522;2022-08-05T04:23:29;20.30;99.90
1538;DHT22;12022;52.266;10.522;2022-08-05T04:26:17;20.40;99.90
1538;DHT22;12022;52.266;10.522;2022-08-05T04:28:44;20.50;99.90
1538;DHT22;12022;52.266;10.522;2022-08-05T04:31:18;20.50;99.90
1538;DHT22;12022;52.266;10.522;2022-08-05T04:33:46;20.50;99.90
1538;DHT22;12022;52.266;10.522;2022-08-05T04:36:33;20.50;99.90
1538;DHT22;12022;52.266;10.522;2022-08-05T04:39:16;20.40;99.90
1538;DHT22;12022;52.266;10.522;2022-08-05T04:41:44;20.30;99.90
1538;DHT22;12022;52.266;10.522;2022-08-05T04:44:14;20.20;99.90
1538;DHT22;12022;52.266;10.522;2022-08-05T04:46:56;20.20;99.90
1538;DHT22;12022;52.266;10.522;2022-08-05T04:49:25;20.20;99.90
1538;DHT22;12022;52.266;10.522;2022-08-05T04:52:12;20.20;99.90
1538;DHT22;12022;52.266;10.522;2022-08-05T04:54:40;20.20;99.90
1538;DHT22;12022;52.266;10.522;2022-08-05T04:57:07;20.10;99.90
1538;DHT22;12022;52.266;10.522;2022-08-05T04:59:34;20.20;99.90
1538;DHT22;12022;52.266;10.522;2022-08-05T05:02:06;20.30;99.90
1538;DHT22;12022;52.266;10.522;2022-08-05T05:04:53;20.40;99.90
1538;DHT22;12022;52.266;10.522;2022-08-05T05:07:29;20.40;99.90
1538;DHT22;12022;52.266;10.522;2022-08-05T05:10:01;20.50;99.90
1538;DHT22;12022;52.266;10.522;2022-08-05T05:12:32;20.50;99.90
1538;DHT22;12022;52.266;10.522;2022-08-05T05:15:03;20.60;99.90
1538;DHT22;12022;52.266;10.522;2022-08-05T05:17:40;20.60;99.90
1538;DHT22;12022;52.266;10.522;2022-08-05T05:20:23;20.70;99.90
1538;DHT22;12022;52.266;10.522;2022-08-05T05:22:55;20.80;99.90
1538;DHT22;12022;52.266;10.522;2022-08-05T05:25:23;20.80;99.90
1538;DHT22;12022;52.266;10.522;2022-08-05T05:27:58;20.90;99.90
1538;DHT22;12022;52.266;10.522;2022-08-05T05:30:25;21.00;99.90
1538;DHT22;12022;52.266;10.522;2022-08-05T05:33:02;21.10;99.90
1538;DHT22;12022;52.266;10.522;2022-08-05T05:35:45;21.20;99.90
1538;DHT22;12022;52.266;10.522;2022-08-05T05:38:14;21.20;99.90
1538;DHT22;12022;52.266;10.522;2022-08-05T05:40:56;21.30;99.90
1538;DHT22;12022;52.266;10.522;2022-08-05T05:43:23;21.40;99.90
1538;DHT22;12022;52.266;10.522;2022-08-05T05:46:10;21.40;99.90
1538;DHT22;12022;52.266;10.522;2022-08-05T05:48:44;21.50;99.90
1538;DHT22;12022;52.266;10.522;2022-08-05T05:51:24;21.60;99.90
1538;DHT22;12022;52.266;10.522;2022-08-05T05:53:54;22.40;99.90
1538;DHT22;12022;52.266;10.522;2022-08-05T05:56:26;23.70;99.90
1538;DHT22;12022;52.266;10.522;2022-08-05T05:59:01;24.90;99.90
1538;DHT22;12022;52.266;10.522;2022-08-05T06:01:33;25.30;99.90
1538;DHT22;12022;52.266;10.522;2022-08-05T06:04:09;25.20;99.90
1538;DHT22;12022;52.266;10.522;2022-08-05T06:06:40;24.90;99.90
1538;DHT22;12022;52.266;10.522;2022-08-05T06:09:09;24.60;99.90
1538;DHT22;12022;52.266;10.522;2022-08-05T06:11:51;24.50;99.90
1538;DHT22;12022;52.266;10.522;2022-08-05T06:14:29;24.40;99.90
1538;DHT22;12022;52.266;10.522;2022-08-05T06:16:57;24.50;99.90
1538;DHT22;12022;52.266;10.522;2022-08-05T06:19:25;24.50;99.90
1538;DHT22;12022;52.266;10.522;2022-08-05T06:22:02;24.40;99.90
1538;DHT22;12022;52.266;10.522;2022-08-05T06:24:32;24.30;99.90
1538;DHT22;12022;52.266;10.522;2022-08-05T06:27:01;24.10;99.90
1538;DHT22;12022;52.266;10.522;2022-08-05T06:29:29;23.80;99.90
1538;DHT22;12022;52.266;10.522;2022-08-05T06:32:17;23.60;99.90
1538;DHT22;12022;52.266;10.522;2022-08-05T06:34:56;23.40;99.90
1538;DHT22;12022;52.266;10.522;2022-08-05T06:37:25;23.10;99.90
1538;DHT22;12022;52.266;10.522;2022-08-05T06:40:13;22.90;99.90
1538;DHT22;12022;52.266;10.522;2022-08-05T06:42:49;22.70;99.90
1538;DHT22;12022;52.266;10.522;2022-08-05T06:45:19;22.50;99.90
1538;DHT22;12022;52.266;10.522;2022-08-05T06:48:06;22.30;99.90
1538;DHT22;12022;52.266;10.522;2022-08-05T06:50:52;22.20;99.90
1538;DHT22;12022;52.266;10.522;2022-08-05T06:53:19;22.00;99.90
1538;DHT22;12022;52.266;10.522;2022-08-05T06:55:58;21.80;99.90
1538;DHT22;12022;52.266;10.522;2022-08-05T06:58:26;21.60;99.90
1538;DHT22;12022;52.266;10.522;2022-08-05T07:01:03;21.40;99.90
1538;DHT22;12022;52.266;10.522;2022-08-05T07:03:30;21.40;99.90
1538;DHT22;12022;52.266;10.522;2022-08-05T07:06:00;21.30;99.90
1538;DHT22;12022;52.266;10.522;2022-08-05T07:08:43;21.10;99.90
1538;DHT22;12022;52.266;10.522;2022-08-05T07:11:14;21.10;99.90
1538;DHT22;12022;52.266;10.522;2022-08-05T07:13:42;21.00;99.90
1538;DHT22;12022;52.266;10.522;2022-08-05T07:16:28;21.00;99.90
1538;DHT22;12022;52.266;10.522;2022-08-05T07:19:34;21.00;99.90
1538;DHT22;12022;52.266;10.522;2022-08-05T07:22:22;21.00;99.90
1538;DHT22;12022;52.266;10.522;2022-08-05T07:25:02;20.90;99.90
1538;DHT22;12022;52.266;10.522;2022-08-05T07:27:51;21.00;99.90
1538;DHT22;12022;52.266;10.522;2022-08-05T07:30:33;21.00;99.90
1538;DHT22;12022;52.266;10.522;2022-08-05T07:33:07;21.10;99.90
1538;DHT22;12022;52.266;10.522;2022-08-05T07:35:42;21.10;99.90
1538;DHT22;12022;52.266;10.522;2022-08-05T07:38:29;21.20;99.90
1538;DHT22;12022;52.266;10.522;2022-08-05T07:41:07;21.30;99.90
1538;DHT22;12022;52.266;10.522;2022-08-05T07:43:55;21.30;99.90
1538;DHT22;12022;52.266;10.522;2022-08-05T07:46:27;21.20;99.90
1538;DHT22;12022;52.266;10.522;2022-08-05T07:48:56;21.10;99.90
1538;DHT22;12022;52.266;10.522;2022-08-05T07:51:35;21.20;99.90
1538;DHT22;12022;52.266;10.522;2022-08-05T07:54:20;21.20;99.90
1538;DHT22;12022;52.266;10.522;2022-08-05T07:56:56;21.20;99.90
1538;DHT22;12022;52.266;10.522;2022-08-05T07:59:40;21.30;99.90
1538;DHT22;12022;52.266;10.522;2022-08-05T08:02:09;21.50;99.90
1538;DHT22;12022;52.266;10.522;2022-08-05T08:04:46;21.40;99.90
1538;DHT22;12022;52.266;10.522;2022-08-05T08:07:18;21.50;99.90
1538;DHT22;12022;52.266;10.522;2022-08-05T08:09:49;21.50;99.90
1538;DHT22;12022;52.266;10.522;2022-08-05T08:12:18;21.40;99.90
1538;DHT22;12022;52.266;10.522;2022-08-05T08:15:04;21.40;99.90
1538;DHT22;12022;52.266;10.522;2022-08-05T08:17:42;21.40;99.90
1538;DHT22;12022;52.266;10.522;2022-08-05T08:20:19;21.40;99.90
1538;DHT22;12022;52.266;10.522;2022-08-05T08:23:07;21.60;99.90
1538;DHT22;12022;52.266;10.522;2022-08-05T08:25:54;21.80;99.90
1538;DHT22;12022;52.266;10.522;2022-08-05T08:28:26;22.10;99.90
1538;DHT22;12022;52.266;10.522;2022-08-05T08:31:08;22.30;99.90
1538;DHT22;12022;52.266;10.522;2022-08-05T08:33:40;22.40;99.90
1538;DHT22;12022;52.266;10.522;2022-08-05T08:36:09;22.50;99.90
1538;DHT22;12022;52.266;10.522;2022-08-05T08:38:56;22.70;99.90
1538;DHT22;12022;52.266;10.522;2022-08-05T08:41:25;22.80;99.90
1538;DHT22;12022;52.266;10.522;2022-08-05T08:44:18;23.10;99.90
1538;DHT22;12022;52.266;10.522;2022-08-05T08:47:06;23.30;99.90
1538;DHT22;12022;52.266;10.522;2022-08-05T08:49:56;23.60;99.90
1538;DHT22;12022;52.266;10.522;2022-08-05T08:52:52;23.60;99.90
1538;DHT22;12022;52.266;10.522;2022-08-05T08:55:21;23.70;99.90
1538;DHT22;12022;52.266;10.522;2022-08-05T08:58:09;23.80;99.90
1538;DHT22;12022;52.266;10.522;2022-08-05T09:00:39;24.00;99.90
1538;DHT22;12022;52.266;10.522;2022-08-05T09:03:08;24.20;99.90
1538;DHT22;12022;52.266;10.522;2022-08-05T09:05:35;24.30;99.90
1538;DHT22;12022;52.266;10.522;2022-08-05T09:08:22;24.40;99.90
1538;DHT22;12022;52.266;10.522;2022-08-05T09:10:56;24.70;99.90
1538;DHT22;12022;52.266;10.522;2022-08-05T09:13:23;25.20;99.90
1538;DHT22;12022;52.266;10.522;2022-08-05T09:15:57;25.20;99.90
1538;DHT22;12022;52.266;10.522;2022-08-05T09:18:24;25.20;99.90
1538;DHT22;12022;52.266;10.522;2022-08-05T09:20:51;25.20;99.90
1538;DHT22;12022;52.266;10.522;2022-08-05T09:23:19;25.10;99.90
1538;DHT22;12022;52.266;10.522;2022-08-05T09:26:09;25.10;99.90
1538;DHT22;12022;52.266;10.522;2022-08-05T09:28:47;25.00;99.90
1538;DHT22;12022;52.266;10.522;2022-08-05T09:31:15;25.00;99.90
1538;DHT22;12022;52.266;10.522;2022-08-05T09:34:07;24.80;99.90
1538;DHT22;12022;52.266;10.522;2022-08-05T09:36:47;24.50;99.90
1538;DHT22;12022;52.266;10.522;2022-08-05T09:39:25;24.50;99.90
1538;DHT22;12022;52.266;10.522;2022-08-05T09:42:19;24.40;99.90
1538;DHT22;12022;52.266;10.522;2022-08-05T09:44:54;24.40;99.90
1538;DHT22;12022;52.266;10.522;2022-08-05T09:47:33;24.40;99.90
1538;DHT22;12022;52.266;10.522;2022-08-05T09:50:20;24.50;99.90
1538;DHT22;12022;52.266;10.522;2022-08-05T09:53:07;24.70;99.90
1538;DHT22;12022;52.266;10.522;2022-08-05T09:55:51;24.80;99.90
1538;DHT22;12022;52.266;10.522;2022-08-05T09:58:25;24.90;99.90
1538;DHT22;12022;52.266;10.522;2022-08-05T10:01:04;24.90;99.90
1538;DHT22;12022;52.266;10.522;2022-08-05T10:04:01;24.90;99.90
1538;DHT22;12022;52.266;10.522;2022-08-05T10:06:30;24.80;99.90
1538;DHT22;12022;52.266;10.522;2022-08-05T10:09:16;24.70;99.90
1538;DHT22;12022;52.266;10.522;2022-08-05T10:12:07;24.60;99.90
1538;DHT22;12022;52.266;10.522;2022-08-05T10:15:30;24.40;99.90
1538;DHT22;12022;52.266;10.522;2022-08-05T10:18:06;24.30;99.90
1538;DHT22;12022;52.266;10.522;2022-08-05T10:23:20;24.20;99.90
1538;DHT22;12022;52.266;10.522;2022-08-05T10:26:08;24.20;99.90
1538;DHT22;12022;52.266;10.522;2022-08-05T10:28:41;24.00;99.90
1538;DHT22;12022;52.266;10.522;2022-08-05T10:31:12;23.90;99.90
1538;DHT22;12022;52.266;10.522;2022-08-05T10:33:59;23.80;99.90
1538;DHT22;12022;52.266;10.522;2022-08-05T10:36:26;23.80;99.90
1538;DHT22;12022;52.266;10.522;2022-08-05T10:38:59;23.70;99.90
1538;DHT22;12022;52.266;10.522;2022-08-05T10:44:17;23.70;99.90
1538;DHT22;12022;52.266;10.522;2022-08-05T10:46:48;23.70;99.90
1538;DHT22;12022;52.266;10.522;2022-08-05T10:49:21;23.80;99.90
1538;DHT22;12022;52.266;10.522;2022-08-05T10:51:58;23.90;99.90
1538;DHT22;12022;52.266;10.522;2022-08-05T10:54:45;23.90;99.90
1538;DHT22;12022;52.266;10.522;2022-08-05T10:57:26;23.90;99.90
1538;DHT22;12022;52.266;10.522;2022-08-05T11:00:20;23.90;99.90
1538;DHT22;12022;52.266;10.522;2022-08-05T11:06:02;24.00;99.90
1538;DHT22;12022;52.266;10.522;2022-08-05T11:08:30;23.80;99.90
1538;DHT22;12022;52.266;10.522;2022-08-05T11:11:34;23.70;99.90
1538;DHT22;12022;52.266;10.522;2022-08-05T11:14:30;23.80;99.90
1538;DHT22;12022;52.266;10.522;2022-08-05T11:23:27;24.00;99.90
1538;DHT22;12022;52.266;10.522;2022-08-05T11:28:59;24.10;99.90
1538;DHT22;12022;52.266;10.522;2022-08-05T11:31:40;24.40;99.90
1538;DHT22;12022;52.266;10.522;2022-08-05T11:34:39;24.80;99.90
1538;DHT22;12022;52.266;10.522;2022-08-05T11:40:57;25.20;99.90
1538;DHT22;12022;52.266;10.522;2022-08-05T11:46:41;25.50;99.90
1538;DHT22;12022;52.266;10.522;2022-08-05T11:49:28;25.50;99.90
1538;DHT22;12022;52.266;10.522;2022-08-05T11:52:00;25.20;99.90
1538;DHT22;12022;52.266;10.522;2022-08-05T11:54:38;25.00;99.90
1538;DHT22;12022;52.266;10.522;2022-08-05T11:57:07;24.70;99.90
1538;DHT22;12022;52.266;10.522;2022-08-05T11:59:52;24.50;99.90
1538;DHT22;12022;52.266;10.522;2022-08-05T12:02:28;24.20;99.90
1538;DHT22;12022;52.266;10.522;2022-08-05T12:05:02;24.00;99.90
1538;DHT22;12022;52.266;10.522;2022-08-05T12:07:36;23.80;99.90
1538;DHT22;12022;52.266;10.522;2022-08-05T12:10:27;23.60;99.90
1538;DHT22;12022;52.266;10.522;2022-08-05T12:13:15;23.50;99.90
1538;DHT22;12022;52.266;10.522;2022-08-05T12:16:07;23.10;99.90
1538;DHT22;12022;52.266;10.522;2022-08-05T12:18:42;22.80;99.90
1538;DHT22;12022;52.266;10.522;2022-08-05T12:21:20;22.50;99.90
1538;DHT22;12022;52.266;10.522;2022-08-05T12:24:02;22.30;99.90
1538;DHT22;12022;52.266;10.522;2022-08-05T12:29:04;22.00;99.90
1538;DHT22;12022;52.266;10.522;2022-08-05T12:31:49;21.80;99.90
1538;DHT22;12022;52.266;10.522;2022-08-05T12:34:21;21.80;99.90
1538;DHT22;12022;52.266;10.522;2022-08-05T12:36:52;21.90;99.90
1538;DHT22;12022;52.266;10.522;2022-08-05T12:39:20;21.90;99.90
1538;DHT22;12022;52.266;10.522;2022-08-05T12:41:49;21.90;99.90
1538;DHT22;12022;52.266;10.522;2022-08-05T12:44:24;21.90;99.90
1538;DHT22;12022;52.266;10.522;2022-08-05T12:47:00;21.70;99.90
1538;DHT22;12022;52.266;10.522;2022-08-05T12:49:46;21.60;99.90
1538;DHT22;12022;52.266;10.522;2022-08-05T12:52:33;21.40;99.90
1538;DHT22;12022;52.266;10.522;2022-08-05T12:55:22;21.30;99.90
1538;DHT22;12022;52.266;10.522;2022-08-05T12:57:53;21.30;99.90
1538;DHT22;12022;52.266;10.522;2022-08-05T13:00:42;21.30;99.90
1538;DHT22;12022;52.266;10.522;2022-08-05T13:03:30;21.10;99.90
1538;DHT22;12022;52.266;10.522;2022-08-05T13:05:59;21.00;99.90
1538;DHT22;12022;52.266;10.522;2022-08-05T13:08:30;20.90;99.90
1538;DHT22;12022;52.266;10.522;2022-08-05T13:10:59;20.90;99.90
1538;DHT22;12022;52.266;10.522;2022-08-05T13:13:27;21.00;99.90
1538;DHT22;12022;52.266;10.522;2022-08-05T13:16:15;21.00;99.90
1538;DHT22;12022;52.266;10.522;2022-08-05T13:18:55;21.20;99.90
1538;DHT22;12022;52.266;10.522;2022-08-05T13:21:25;21.40;99.90
1538;DHT22;12022;52.266;10.522;2022-08-05T13:24:12;21.60;99.90
1538;DHT22;12022;52.266;10.522;2022-08-05T13:26:53;21.70;99.90
1538;DHT22;12022;52.266;10.522;2022-08-05T13:29:20;21.80;99.90
1538;DHT22;12022;52.266;10.522;2022-08-05T13:32:04;21.90;99.90
1538;DHT22;12022;52.266;10.522;2022-08-05T13:34:31;21.90;99.90
1538;DHT22;12022;52.266;10.522;2022-08-05T13:36:59;21.70;99.90
1538;DHT22;12022;52.266;10.522;2022-08-05T13:39:26;21.50;99.90
1538;DHT22;12022;52.266;10.522;2022-08-05T13:42:22;21.50;99.90
1538;DHT22;12022;52.266;10.522;2022-08-05T13:44:52;21.50;99.90
1538;DHT22;12022;52.266;10.522;2022-08-05T13:47:19;21.40;99.90
1538;DHT22;12022;52.266;10.522;2022-08-05T13:50:03;21.40;99.90
1538;DHT22;12022;52.266;10.522;2022-08-05T13:52:35;21.40;99.90
1538;DHT22;12022;52.266;10.522;2022-08-05T13:55:07;21.40;99.90
1538;DHT22;12022;52.266;10.522;2022-08-05T13:57:36;21.50;99.90
1538;DHT22;12022;52.266;10.522;2022-08-05T14:00:19;21.50;99.90
1538;DHT22;12022;52.266;10.522;2022-08-05T14:02:55;21.60;99.90
1538;DHT22;12022;52.266;10.522;2022-08-05T14:05:23;21.70;99.90
1538;DHT22;12022;52.266;10.522;2022-08-05T14:08:13;21.80;99.90
1538;DHT22;12022;52.266;10.522;2022-08-05T14:10:53;21.90;99.90
1538;DHT22;12022;52.266;10.522;2022-08-05T14:13:33;22.10;99.90
1538;DHT22;12022;52.266;10.522;2022-08-05T14:23:30;22.10;99.90
1538;DHT22;12022;52.266;10.522;2022-08-05T14:26:02;22.20;99.90
1538;DHT22;12022;52.266;10.522;2022-08-05T14:28:32;22.30;99.90
1538;DHT22;12022;52.266;10.522;2022-08-05T14:31:00;22.40;99.90
1538;DHT22;12022;52.266;10.522;2022-08-05T14:33:28;22.50;99.90
1538;DHT22;12022;52.266;10.522;2022-08-05T14:36:16;22.60;99.90
1538;DHT22;12022;52.266;10.522;2022-08-05T14:38:48;22.60;99.90
1538;DHT22;12022;52.266;10.522;2022-08-05T14:41:15;22.70;99.90
1538;DHT22;12022;52.266;10.522;2022-08-05T14:43:44;22.70;99.90
1538;DHT22;12022;52.266;10.522;2022-08-05T14:46:30;22.80;99.90
1538;DHT22;12022;52.266;10.522;2022-08-05T14:48:59;22.90;99.90
1538;DHT22;12022;52.266;10.522;2022-08-05T14:51:36;22.90;99.90
1538;DHT22;12022;52.266;10.522;2022-08-05T14:54:08;22.80;99.90
1538;DHT22;12022;52.266;10.522;2022-08-05T14:56:55;22.80;99.90
1538;DHT22;12022;52.266;10.522;2022-08-05T14:59:23;22.80;99.90
1538;DHT22;12022;52.266;10.522;2022-08-05T15:01:50;22.90;99.90
1538;DHT22;12022;52.266;10.522;2022-08-05T15:04:20;23.20;99.90
1538;DHT22;12022;52.266;10.522;2022-08-05T15:06:51;23.00;99.90
1538;DHT22;12022;52.266;10.522;2022-08-05T15:09:19;23.10;99.90
1538;DHT22;12022;52.266;10.522;2022-08-05T15:12:07;23.10;99.90
1538;DHT22;12022;52.266;10.522;2022-08-05T15:14:35;23.10;99.90
1538;DHT22;12022;52.266;10.522;2022-08-05T15:17:16;23.20;99.90
1538;DHT22;12022;52.266;10.522;2022-08-05T15:20:04;23.40;99.90
1538;DHT22;12022;52.266;10.522;2022-08-05T15:22:31;23.60;99.90
1538;DHT22;12022;52.266;10.522;2022-08-05T15:24:59;23.70;99.90
1538;DHT22;12022;52.266;10.522;2022-08-05T15:27:37;23.80;99.90
1538;DHT22;12022;52.266;10.522;2022-08-05T15:30:09;23.80;99.90
1538;DHT22;12022;52.266;10.522;2022-08-05T15:32:39;23.80;99.90
1538;DHT22;12022;52.266;10.522;2022-08-05T15:35:07;23.60;99.90
1538;DHT22;12022;52.266;10.522;2022-08-05T15:37:38;23.50;99.90
1538;DHT22;12022;52.266;10.522;2022-08-05T15:40:25;23.20;99.90
1538;DHT22;12022;52.266;10.522;2022-08-05T15:43:12;23.10;99.90
1538;DHT22;12022;52.266;10.522;2022-08-05T15:45:46;23.00;99.90
1538;DHT22;12022;52.266;10.522;2022-08-05T15:48:25;23.20;99.90
1538;DHT22;12022;52.266;10.522;2022-08-05T15:50:52;23.00;99.90
1538;DHT22;12022;52.266;10.522;2022-08-05T15:53:22;23.00;99.90
1538;DHT22;12022;52.266;10.522;2022-08-05T15:55:52;23.00;99.90
1538;DHT22;12022;52.266;10.522;2022-08-05T15:58:30;23.00;99.90
1538;DHT22;12022;52.266;10.522;2022-08-05T16:01:04;23.10;99.90
1538;DHT22;12022;52.266;10.522;2022-08-05T16:03:44;23.30;99.90
1538;DHT22;12022;52.266;10.522;2022-08-05T16:06:18;23.40;99.90
1538;DHT22;12022;52.266;10.522;2022-08-05T16:08:47;23.60;99.90
1538;DHT22;12022;52.266;10.522;2022-08-05T16:11:19;23.80;99.90
1538;DHT22;12022;52.266;10.522;2022-08-05T16:14:05;23.80;99.90
1538;DHT22;12022;52.266;10.522;2022-08-05T16:16:32;23.90;99.90
1538;DHT22;12022;52.266;10.522;2022-08-05T16:19:01;23.80;99.90
1538;DHT22;12022;52.266;10.522;2022-08-05T16:21:31;23.90;99.90
1538;DHT22;12022;52.266;10.522;2022-08-05T16:24:18;24.00;99.90
1538;DHT22;12022;52.266;10.522;2022-08-05T16:27:05;23.80;99.90
1538;DHT22;12022;52.266;10.522;2022-08-05T16:29:33;23.80;99.90
1538;DHT22;12022;52.266;10.522;2022-08-05T16:32:04;23.80;99.90
1538;DHT22;12022;52.266;10.522;2022-08-05T16:34:32;23.90;99.90
1538;DHT22;12022;52.266;10.522;2022-08-05T16:36:59;23.90;99.90
1538;DHT22;12022;52.266;10.522;2022-08-05T16:39:26;24.00;99.90
1538;DHT22;12022;52.266;10.522;2022-08-05T16:42:13;24.00;99.90
1538;DHT22;12022;52.266;10.522;2022-08-05T16:44:45;24.00;99.90
1538;DHT22;12022;52.266;10.522;2022-08-05T16:47:22;23.90;99.90
1538;DHT22;12022;52.266;10.522;2022-08-05T16:50:03;23.80;99.90
1538;DHT22;12022;52.266;10.522;2022-08-05T16:52:31;23.80;99.90
1538;DHT22;12022;52.266;10.522;2022-08-05T16:54:59;23.70;99.90
1538;DHT22;12022;52.266;10.522;2022-08-05T16:57:26;23.60;99.90
1538;DHT22;12022;52.266;10.522;2022-08-05T17:00:13;23.40;99.90
1538;DHT22;12022;52.266;10.522;2022-08-05T17:03:04;23.20;99.90
1538;DHT22;12022;52.266;10.522;2022-08-05T17:05:47;23.00;99.90
1538;DHT22;12022;52.266;10.522;2022-08-05T17:08:26;22.80;99.90
1538;DHT22;12022;52.266;10.522;2022-08-05T17:11:13;22.70;99.90
1538;DHT22;12022;52.266;10.522;2022-08-05T17:13:44;22.60;99.90
1538;DHT22;12022;52.266;10.522;2022-08-05T17:16:11;22.50;99.90